sensor_id;sensor_type;location;lat;lon;timestamp;pressure;altitude;pressure_sealevel;temperature;humidity
26719;BME280;14326;50.794;6.060;2022-12-10T00:00:24;98841.16;;;0.03;100.00
26719;BME280;14326;50.794;6.060;2022-12-10T00:02:51;98843.94;;;0.08;100.00
26719;BME280;14326;50.794;6.060;2022-12-10T00:05:18;98842.13;;;0.05;100.00
26719;BME280;14326;50.794;6.060;2022-12-10T00:07:46;98842.16;;;0.07;100.00
26719;BME280;14326;50.794;6.060;2022-12-10T00:10:13;98845.63;;;0.06;100.00
26719;BME280;14326;50.794;6.060;2022-12-10T00:12:39;98842.16;;;0.07;100.00
26719;BME280;14326;50.794;6.060;2022-12-10T00:15:07;98848.94;;;0.02;100.00
26719;BME280;14326;50.794;6.060;2022-12-10T00:17:34;98845.44;;;0.01;100.00
26719;BME280;14326;50.794;6.060;2022-12-10T00:20:00;98851.91;;;-0.12;100.00
26719;BME280;14326;50.794;6.060;2022-12-10T00:22:27;98858.53;;;-0.21;100.00
26719;BME280;14326;50.794;6.060;2022-12-10T00:24:55;98859.47;;;-0.19;100.00
26719;BME280;14326;50.794;6.060;2022-12-10T00:27:22;98856.94;;;-0.18;100.00
26719;BME280;14326;50.794;6.060;2022-12-10T00:29:48;98852.53;;;-0.19;100.00
26719;BME280;14326;50.794;6.060;2022-12-10T00:32:15;98853.94;;;-0.27;100.00
26719;BME280;14326;50.794;6.060;2022-12-10T00:34:41;98865.56;;;-0.41;100.00
26719;BME280;14326;50.794;6.060;2022-12-10T00:37:08;98861.31;;;-0.39;100.00
26719;BME280;14326;50.794;6.060;2022-12-10T00:39:35;98860.59;;;-0.35;100.00
26719;BME280;14326;50.794;6.060;2022-12-10T00:42:03;98860.91;;;-0.27;100.00
26719;BME280;14326;50.794;6.060;2022-12-10T00:44:29;98863.69;;;-0.23;100.00
26719;BME280;14326;50.794;6.060;2022-12-10T00:46:56;98865.59;;;-0.19;100.00
26719;BME280;14326;50.794;6.060;2022-12-10T00:49:23;98858.41;;;-0.24;100.00
26719;BME280;14326;50.794;6.060;2022-12-10T00:51:50;98857.69;;;-0.20;100.00
26719;BME280;14326;50.794;6.060;2022-12-10T00:54:16;98850.69;;;-0.21;100.00
26719;BME280;14326;50.794;6.060;2022-12-10T00:56:43;98847.25;;;-0.20;100.00
26719;BME280;14326;50.794;6.060;2022-12-10T00:59:11;98857.56;;;-0.23;100.00
26719;BME280;14326;50.794;6.060;2022-12-10T01:01:39;98845.16;;;-0.29;100.00
26719;BME280;14326;50.794;6.060;2022-12-10T01:04:08;98846.88;;;-0.29;100.00
26719;BME280;14326;50.794;6.060;2022-12-10T01:06:40;98854.03;;;-0.25;100.00
26719;BME280;14326;50.794;6.060;2022-12-10T01:09:10;98851.34;;;-0.27;100.00
26719;BME280;14326;50.794;6.060;2022-12-10T01:11:38;98849.69;;;-0.25;100.00
26719;BME280;14326;50.794;6.060;2022-12-10T01:14:06;98850.19;;;-0.33;100.00
26719;BME280;14326;50.794;6.060;2022-12-10T01:16:34;98853.78;;;-0.31;100.00
26719;BME280;14326;50.794;6.060;2022-12-10T01:19:01;98865.38;;;-0.25;100.00
26719;BME280;14326;50.794;6.060;2022-12-10T01:21:28;98859.75;;;-0.34;100.00
26719;BME280;14326;50.794;6.060;2022-12-10T01:23:56;98861.53;;;-0.33;100.00
26719;BME280;14326;50.794;6.060;2022-12-10T01:26:25;98866.91;;;-0.30;100.00
26719;BME280;14326;50.794;6.060;2022-12-10T01:28:53;98870.16;;;-0.35;100.00
26719;BME280;14326;50.794;6.060;2022-12-10T01:31:21;98878.19;;;-0.31;100.00
26719;BME280;14326;50.794;6.060;2022-12-10T01:33:50;98880.78;;;-0.31;100.00
26719;BME280;14326;50.794;6.060;2022-12-10T01:36:19;98873.22;;;-0.23;100.00
26719;BME280;14326;50.794;6.060;2022-12-10T01:38:46;98877.63;;;-0.22;100.00
26719;BME280;14326;50.794;6.060;2022-12-10T01:41:15;98886.03;;;-0.31;100.00
26719;BME280;14326;50.794;6.060;2022-12-10T01:43:52;98881.63;;;-0.32;100.00
26719;BME280;14326;50.794;6.060;2022-12-10T01:46:20;98889.38;;;-0.33;100.00
26719;BME280;14326;50.794;6.060;2022-12-10T01:48:47;98887.44;;;-0.39;100.00
26719;BME280;14326;50.794;6.060;2022-12-10T01:51:15;98886.28;;;-0.46;100.00
26719;BME280;14326;50.794;6.060;2022-12-10T01:53:43;98889.97;;;-0.41;100.00
26719;BME280;14326;50.794;6.060;2022-12-10T01:56:11;98901.31;;;-0.40;100.00
26719;BME280;14326;50.794;6.060;2022-12-10T01:58:38;98899.75;;;-0.35;100.00
26719;BME280;14326;50.794;6.060;2022-12-10T02:01:12;98900.66;;;-0.34;100.00
26719;BME280;14326;50.794;6.060;2022-12-10T02:03:52;98906.03;;;-0.31;100.00
26719;BME280;14326;50.794;6.060;2022-12-10T02:06:44;98903.53;;;-0.28;100.00
26719;BME280;14326;50.794;6.060;2022-12-10T02:09:19;98901.88;;;-0.26;100.00
26719;BME280;14326;50.794;6.060;2022-12-10T02:11:55;98895.50;;;-0.33;100.00
26719;BME280;14326;50.794;6.060;2022-12-10T02:14:29;98897.41;;;-0.29;100.00
26719;BME280;14326;50.794;6.060;2022-12-10T02:17:04;98900.09;;;-0.27;100.00
26719;BME280;14326;50.794;6.060;2022-12-10T02:19:45;98890.69;;;-0.22;100.00
26719;BME280;14326;50.794;6.060;2022-12-10T02:22:16;98891.59;;;-0.22;100.00
26719;BME280;14326;50.794;6.060;2022-12-10T02:24:44;98892.41;;;-0.23;100.00
26719;BME280;14326;50.794;6.060;2022-12-10T02:27:17;98895.91;;;-0.22;100.00
26719;BME280;14326;50.794;6.060;2022-12-10T02:29:48;98892.72;;;-0.37;100.00
26719;BME280;14326;50.794;6.060;2022-12-10T02:32:19;98893.44;;;-0.42;100.00
26719;BME280;14326;50.794;6.060;2022-12-10T02:34:50;98901.06;;;-0.46;100.00
26719;BME280;14326;50.794;6.060;2022-12-10T02:37:22;98893.47;;;-0.40;100.00
26719;BME280;14326;50.794;6.060;2022-12-10T02:39:52;98899.34;;;-0.46;100.00
26719;BME280;14326;50.794;6.060;2022-12-10T02:42:21;98903.91;;;-0.40;100.00
26719;BME280;14326;50.794;6.060;2022-12-10T02:44:52;98900.47;;;-0.39;100.00
26719;BME280;14326;50.794;6.060;2022-12-10T02:47:20;98902.38;;;-0.35;100.00
26719;BME280;14326;50.794;6.060;2022-12-10T02:49:50;98905.00;;;-0.35;100.00
26719;BME280;14326;50.794;6.060;2022-12-10T02:52:19;98900.31;;;-0.44;100.00
26719;BME280;14326;50.794;6.060;2022-12-10T02:54:48;98913.84;;;-0.54;100.00
26719;BME280;14326;50.794;6.060;2022-12-10T02:57:25;98901.28;;;-0.62;100.00
26719;BME280;14326;50.794;6.060;2022-12-10T03:00:10;98902.09;;;-0.63;100.00
26719;BME280;14326;50.794;6.060;2022-12-10T03:02:50;98906.31;;;-0.67;100.00
26719;BME280;14326;50.794;6.060;2022-12-10T03:05:22;98910.50;;;-0.70;100.00
26719;BME280;14326;50.794;6.060;2022-12-10T03:07:50;98912.28;;;-0.69;100.00
26719;BME280;14326;50.794;6.060;2022-12-10T03:10:24;98906.38;;;-0.65;100.00
26719;BME280;14326;50.794;6.060;2022-12-10T03:12:56;98909.03;;;-0.64;100.00
26719;BME280;14326;50.794;6.060;2022-12-10T03:15:28;98910.84;;;-0.84;100.00
26719;BME280;14326;50.794;6.060;2022-12-10T03:17:57;98912.16;;;-0.93;100.00
26719;BME280;14326;50.794;6.060;2022-12-10T03:20:26;98915.09;;;-0.86;100.00
26719;BME280;14326;50.794;6.060;2022-12-10T03:22:53;98910.25;;;-0.76;100.00
26719;BME280;14326;50.794;6.060;2022-12-10T03:25:24;98921.97;;;-0.67;100.00
26719;BME280;14326;50.794;6.060;2022-12-10T03:27:54;98924.78;;;-0.62;100.00
26719;BME280;14326;50.794;6.060;2022-12-10T03:30:22;98919.81;;;-0.56;100.00
26719;BME280;14326;50.794;6.060;2022-12-10T03:32:51;98920.06;;;-0.50;100.00
26719;BME280;14326;50.794;6.060;2022-12-10T03:35:20;98916.63;;;-0.49;100.00
26719;BME280;14326;50.794;6.060;2022-12-10T03:37:48;98907.06;;;-0.49;100.00
26719;BME280;14326;50.794;6.060;2022-12-10T03:40:16;98913.03;;;-0.51;100.00
26719;BME280;14326;50.794;6.060;2022-12-10T03:42:44;98913.88;;;-0.52;100.00
26719;BME280;14326;50.794;6.060;2022-12-10T03:45:10;98918.53;;;-0.45;100.00
26719;BME280;14326;50.794;6.060;2022-12-10T03:47:37;98913.44;;;-0.42;100.00
26719;BME280;14326;50.794;6.060;2022-12-10T03:50:06;98916.09;;;-0.41;100.00
26719;BME280;14326;50.794;6.060;2022-12-10T03:52:33;98914.44;;;-0.38;100.00
26719;BME280;14326;50.794;6.060;2022-12-10T03:54:59;98914.44;;;-0.38;100.00
26719;BME280;14326;50.794;6.060;2022-12-10T03:57:26;98918.13;;;-0.33;100.00
26719;BME280;14326;50.794;6.060;2022-12-10T03:59:53;98908.56;;;-0.33;100.00
26719;BME280;14326;50.794;6.060;2022-12-10T04:02:19;98913.03;;;-0.30;100.00
26719;BME280;14326;50.794;6.060;2022-12-10T04:04:46;98901.81;;;-0.28;100.00
26719;BME280;14326;50.794;6.060;2022-12-10T04:07:14;98914.78;;;-0.29;100.00
26719;BME280;14326;50.794;6.060;2022-12-10T04:09:41;98911.25;;;-0.31;100.00
26719;BME280;14326;50.794;6.060;2022-12-10T04:12:10;98913.16;;;-0.27;100.00
26719;BME280;14326;50.794;6.060;2022-12-10T04:14:45;98909.56;;;-0.29;100.00
26719;BME280;14326;50.794;6.060;2022-12-10T04:17:50;98910.66;;;-0.24;100.00
26719;BME280;14326;50.794;6.060;2022-12-10T04:20:23;98921.06;;;-0.26;100.00
26719;BME280;14326;50.794;6.060;2022-12-10T04:23:22;98926.38;;;-0.23;100.00
26719;BME280;14326;50.794;6.060;2022-12-10T04:26:06;98930.53;;;-0.28;100.00
26719;BME280;14326;50.794;6.060;2022-12-10T04:28:47;98928.88;;;-0.26;100.00
26719;BME280;14326;50.794;6.060;2022-12-10T04:31:14;98928.81;;;-0.27;100.00
26719;BME280;14326;50.794;6.060;2022-12-10T04:33:40;98924.25;;;-0.33;100.00
26719;BME280;14326;50.794;6.060;2022-12-10T04:36:07;98931.25;;;-0.32;100.00
26719;BME280;14326;50.794;6.060;2022-12-10T04:38:35;98930.69;;;-0.25;100.00
26719;BME280;14326;50.794;6.060;2022-12-10T04:41:02;98928.88;;;-0.26;100.00
26719;BME280;14326;50.794;6.060;2022-12-10T04:43:40;98930.84;;;-0.20;100.00
26719;BME280;14326;50.794;6.060;2022-12-10T04:46:07;98927.53;;;-0.16;100.00
26719;BME280;14326;50.794;6.060;2022-12-10T04:48:34;98925.81;;;-0.16;100.00
26719;BME280;14326;50.794;6.060;2022-12-10T04:51:01;98932.09;;;-0.11;100.00
26719;BME280;14326;50.794;6.060;2022-12-10T04:53:27;98932.09;;;-0.11;100.00
26719;BME280;14326;50.794;6.060;2022-12-10T04:55:55;98931.22;;;-0.11;100.00
26719;BME280;14326;50.794;6.060;2022-12-10T04:58:22;98932.00;;;-0.14;100.00
26719;BME280;14326;50.794;6.060;2022-12-10T05:00:49;98935.09;;;-0.24;100.00
26719;BME280;14326;50.794;6.060;2022-12-10T05:03:15;98931.19;;;-0.33;100.00
26719;BME280;14326;50.794;6.060;2022-12-10T05:05:42;98932.00;;;-0.34;100.00
26719;BME280;14326;50.794;6.060;2022-12-10T05:08:08;98936.97;;;-0.20;100.00
26719;BME280;14326;50.794;6.060;2022-12-10T05:10:36;98932.88;;;-0.13;100.00
26719;BME280;14326;50.794;6.060;2022-12-10T05:13:04;98928.59;;;-0.11;100.00
26719;BME280;14326;50.794;6.060;2022-12-10T05:15:30;98933.00;;;-0.10;100.00
26719;BME280;14326;50.794;6.060;2022-12-10T05:17:57;98930.31;;;-0.12;100.00
26719;BME280;14326;50.794;6.060;2022-12-10T05:20:23;98927.00;;;-0.08;100.00
26719;BME280;14326;50.794;6.060;2022-12-10T05:22:50;98933.06;;;-0.09;100.00
26719;BME280;14326;50.794;6.060;2022-12-10T05:25:34;98931.34;;;-0.08;100.00
26719;BME280;14326;50.794;6.060;2022-12-10T05:28:19;98935.44;;;-0.15;100.00
26719;BME280;14326;50.794;6.060;2022-12-10T05:30:46;98928.41;;;-0.16;100.00
26719;BME280;14326;50.794;6.060;2022-12-10T05:33:12;98931.28;;;-0.10;100.00
26719;BME280;14326;50.794;6.060;2022-12-10T05:35:39;98936.31;;;-0.14;100.00
26719;BME280;14326;50.794;6.060;2022-12-10T05:38:06;98933.78;;;-0.13;100.00
26719;BME280;14326;50.794;6.060;2022-12-10T05:40:34;98931.16;;;-0.13;100.00
26719;BME280;14326;50.794;6.060;2022-12-10T05:43:00;98937.97;;;-0.16;100.00
26719;BME280;14326;50.794;6.060;2022-12-10T05:45:28;98932.81;;;-0.15;100.00
26719;BME280;14326;50.794;6.060;2022-12-10T05:47:57;98934.69;;;-0.12;100.00
26719;BME280;14326;50.794;6.060;2022-12-10T05:50:24;98938.13;;;-0.13;100.00
26719;BME280;14326;50.794;6.060;2022-12-10T05:52:50;98938.13;;;-0.13;100.00
26719;BME280;14326;50.794;6.060;2022-12-10T05:55:17;98941.38;;;-0.19;100.00
26719;BME280;14326;50.794;6.060;2022-12-10T05:57:44;98945.72;;;-0.19;100.00
26719;BME280;14326;50.794;6.060;2022-12-10T06:00:12;98944.81;;;-0.20;100.00
26719;BME280;14326;50.794;6.060;2022-12-10T06:02:40;98943.28;;;-0.15;100.00
26719;BME280;14326;50.794;6.060;2022-12-10T06:05:07;98935.53;;;-0.12;100.00
26719;BME280;14326;50.794;6.060;2022-12-10T06:07:35;98939.28;;;-0.05;100.00
26719;BME280;14326;50.794;6.060;2022-12-10T06:10:01;98941.91;;;-0.05;100.00
26719;BME280;14326;50.794;6.060;2022-12-10T06:12:29;98947.13;;;-0.05;100.00
26719;BME280;14326;50.794;6.060;2022-12-10T06:14:56;98943.94;;;0.02;100.00
26719;BME280;14326;50.794;6.060;2022-12-10T06:17:22;98951.72;;;0.00;100.00
26719;BME280;14326;50.794;6.060;2022-12-10T06:19:50;98958.63;;;-0.02;100.00
26719;BME280;14326;50.794;6.060;2022-12-10T06:22:17;98953.63;;;0.05;100.00
26719;BME280;14326;50.794;6.060;2022-12-10T06:24:44;98963.19;;;0.04;100.00
26719;BME280;14326;50.794;6.060;2022-12-10T06:27:10;98957.59;;;-0.05;100.00
26719;BME280;14326;50.794;6.060;2022-12-10T06:29:37;98969.50;;;-0.12;100.00
26719;BME280;14326;50.794;6.060;2022-12-10T06:32:04;98964.28;;;-0.12;100.00
26719;BME280;14326;50.794;6.060;2022-12-10T06:34:30;98962.53;;;-0.13;100.00
26719;BME280;14326;50.794;6.060;2022-12-10T06:36:59;98960.75;;;-0.14;100.00
26719;BME280;14326;50.794;6.060;2022-12-10T06:39:26;98974.69;;;-0.13;100.00
26719;BME280;14326;50.794;6.060;2022-12-10T06:41:52;98966.72;;;-0.16;100.00
26719;BME280;14326;50.794;6.060;2022-12-10T06:44:19;98972.00;;;-0.15;100.00
26719;BME280;14326;50.794;6.060;2022-12-10T06:46:45;98970.47;;;-0.10;100.00
26719;BME280;14326;50.794;6.060;2022-12-10T06:49:12;98973.97;;;-0.09;100.00
26719;BME280;14326;50.794;6.060;2022-12-10T06:51:39;98973.16;;;-0.08;100.00
26719;BME280;14326;50.794;6.060;2022-12-10T06:54:07;98979.03;;;-0.14;100.00
26719;BME280;14326;50.794;6.060;2022-12-10T06:56:33;98980.16;;;-0.07;100.00
26719;BME280;14326;50.794;6.060;2022-12-10T06:59:05;98989.47;;;-0.14;100.00
26719;BME280;14326;50.794;6.060;2022-12-10T07:01:32;98996.50;;;-0.13;100.00
26719;BME280;14326;50.794;6.060;2022-12-10T07:03:59;98998.97;;;-0.16;100.00
26719;BME280;14326;50.794;6.060;2022-12-10T07:06:26;99007.84;;;-0.12;100.00
26719;BME280;14326;50.794;6.060;2022-12-10T07:08:54;99004.34;;;-0.13;100.00
26719;BME280;14326;50.794;6.060;2022-12-10T07:11:23;99007.00;;;-0.11;100.00
26719;BME280;14326;50.794;6.060;2022-12-10T07:13:50;99011.28;;;-0.13;100.00
26719;BME280;14326;50.794;6.060;2022-12-10T07:16:20;99002.72;;;-0.09;100.00
26719;BME280;14326;50.794;6.060;2022-12-10T07:18:47;98997.66;;;-0.06;100.00
26719;BME280;14326;50.794;6.060;2022-12-10T07:21:15;98997.56;;;-0.08;100.00
26719;BME280;14326;50.794;6.060;2022-12-10T07:23:43;99004.69;;;-0.04;100.00
26719;BME280;14326;50.794;6.060;2022-12-10T07:26:12;99000.44;;;-0.02;100.00
26719;BME280;14326;50.794;6.060;2022-12-10T07:28:40;99005.28;;;-0.11;100.00
26719;BME280;14326;50.794;6.060;2022-12-10T07:31:08;99016.53;;;-0.12;100.00
26719;BME280;14326;50.794;6.060;2022-12-10T07:33:36;99012.94;;;-0.15;100.00
26719;BME280;14326;50.794;6.060;2022-12-10T07:36:04;99011.13;;;-0.16;100.00
26719;BME280;14326;50.794;6.060;2022-12-10T07:38:30;99008.91;;;-0.07;100.00
26719;BME280;14326;50.794;6.060;2022-12-10T07:40:57;99009.81;;;-0.07;100.00
26719;BME280;14326;50.794;6.060;2022-12-10T07:43:24;99007.97;;;-0.09;100.00
26719;BME280;14326;50.794;6.060;2022-12-10T07:45:52;99006.69;;;-0.19;100.00
26719;BME280;14326;50.794;6.060;2022-12-10T07:48:20;99014.72;;;-0.14;100.00
26719;BME280;14326;50.794;6.060;2022-12-10T07:50:55;99017.25;;;-0.16;100.00
26719;BME280;14326;50.794;6.060;2022-12-10T07:53:22;99014.53;;;-0.19;100.00
26719;BME280;14326;50.794;6.060;2022-12-10T07:55:49;99015.47;;;-0.17;100.00
26719;BME280;14326;50.794;6.060;2022-12-10T07:58:16;99027.59;;;-0.19;100.00
26719;BME280;14326;50.794;6.060;2022-12-10T08:00:45;99025.63;;;-0.24;100.00
26719;BME280;14326;50.794;6.060;2022-12-10T08:03:16;99023.03;;;-0.24;100.00
26719;BME280;14326;50.794;6.060;2022-12-10T08:05:43;99025.00;;;-0.19;100.00
26719;BME280;14326;50.794;6.060;2022-12-10T08:08:10;99027.72;;;-0.16;100.00
26719;BME280;14326;50.794;6.060;2022-12-10T08:10:38;99026.81;;;-0.16;100.00
26719;BME280;14326;50.794;6.060;2022-12-10T08:13:05;99028.50;;;-0.18;100.00
26719;BME280;14326;50.794;6.060;2022-12-10T08:15:32;99031.38;;;-0.12;100.00
26719;BME280;14326;50.794;6.060;2022-12-10T08:17:59;99035.75;;;-0.11;100.00
26719;BME280;14326;50.794;6.060;2022-12-10T08:20:27;99039.38;;;-0.08;100.00
26719;BME280;14326;50.794;6.060;2022-12-10T08:22:54;99042.69;;;-0.12;100.00
26719;BME280;14326;50.794;6.060;2022-12-10T08:25:20;99042.81;;;-0.09;100.00
26719;BME280;14326;50.794;6.060;2022-12-10T08:27:47;99043.00;;;-0.04;100.00
26719;BME280;14326;50.794;6.060;2022-12-10T08:30:13;99048.06;;;-0.09;100.00
26719;BME280;14326;50.794;6.060;2022-12-10T08:32:40;99058.25;;;-0.15;100.00
26719;BME280;14326;50.794;6.060;2022-12-10T08:35:07;99060.97;;;-0.12;100.00
26719;BME280;14326;50.794;6.060;2022-12-10T08:37:35;99055.63;;;-0.15;100.00
26719;BME280;14326;50.794;6.060;2022-12-10T08:40:02;99049.69;;;-0.11;100.00
26719;BME280;14326;50.794;6.060;2022-12-10T08:42:29;99056.34;;;-0.19;100.00
26719;BME280;14326;50.794;6.060;2022-12-10T08:44:56;99066.47;;;-0.26;100.00
26719;BME280;14326;50.794;6.060;2022-12-10T08:47:22;99075.00;;;-0.30;100.00
26719;BME280;14326;50.794;6.060;2022-12-10T08:49:49;99070.53;;;-0.33;100.00
26719;BME280;14326;50.794;6.060;2022-12-10T08:52:15;99068.13;;;-0.28;100.00
26719;BME280;14326;50.794;6.060;2022-12-10T08:54:43;99078.63;;;-0.27;100.00
26719;BME280;14326;50.794;6.060;2022-12-10T08:57:10;99081.44;;;-0.22;100.00
26719;BME280;14326;50.794;6.060;2022-12-10T08:59:37;99084.69;;;-0.28;100.00
26719;BME280;14326;50.794;6.060;2022-12-10T09:02:04;99081.97;;;-0.31;100.00
26719;BME280;14326;50.794;6.060;2022-12-10T09:04:30;99082.84;;;-0.30;100.00
26719;BME280;14326;50.794;6.060;2022-12-10T09:06:57;99083.03;;;-0.26;100.00
26719;BME280;14326;50.794;6.060;2022-12-10T09:09:23;99084.94;;;-0.22;100.00
26719;BME280;14326;50.794;6.060;2022-12-10T09:11:51;99091.13;;;-0.20;100.00
26719;BME280;14326;50.794;6.060;2022-12-10T09:14:18;99081.59;;;-0.19;100.00
26719;BME280;14326;50.794;6.060;2022-12-10T09:16:44;99086.88;;;-0.18;100.00
26719;BME280;14326;50.794;6.060;2022-12-10T09:19:11;99086.81;;;-0.19;100.00
26719;BME280;14326;50.794;6.060;2022-12-10T09:21:37;99091.13;;;-0.20;100.00
26719;BME280;14326;50.794;6.060;2022-12-10T09:24:05;99086.00;;;-0.18;100.00
26719;BME280;14326;50.794;6.060;2022-12-10T09:26:31;99090.16;;;-0.22;100.00
26719;BME280;14326;50.794;6.060;2022-12-10T09:28:59;99097.19;;;-0.21;100.00
26719;BME280;14326;50.794;6.060;2022-12-10T09:31:27;99103.66;;;-0.13;100.00
26719;BME280;14326;50.794;6.060;2022-12-10T09:33:54;99105.63;;;-0.07;100.00
26719;BME280;14326;50.794;6.060;2022-12-10T09:36:21;99100.44;;;-0.06;100.00
26719;BME280;14326;50.794;6.060;2022-12-10T09:38:48;99100.50;;;-0.04;100.00
26719;BME280;14326;50.794;6.060;2022-12-10T09:41:47;99102.75;;;-0.13;100.00
26719;BME280;14326;50.794;6.060;2022-12-10T09:44:26;99103.22;;;-0.22;100.00
26719;BME280;14326;50.794;6.060;2022-12-10T09:46:58;99104.28;;;-0.18;100.00
26719;BME280;14326;50.794;6.060;2022-12-10T09:49:32;99107.16;;;-0.12;100.00
26719;BME280;14326;50.794;6.060;2022-12-10T09:52:02;99101.72;;;-0.17;100.00
26719;BME280;14326;50.794;6.060;2022-12-10T09:54:31;99103.38;;;-0.19;100.00
26719;BME280;14326;50.794;6.060;2022-12-10T09:56:59;99104.31;;;-0.17;100.00
26719;BME280;14326;50.794;6.060;2022-12-10T09:59:30;99104.47;;;-0.14;100.00
26719;BME280;14326;50.794;6.060;2022-12-10T10:02:03;99107.78;;;-0.18;100.00
26719;BME280;14326;50.794;6.060;2022-12-10T10:04:32;99104.31;;;-0.17;100.00
26719;BME280;14326;50.794;6.060;2022-12-10T10:06:59;99099.50;;;-0.08;100.00
26719;BME280;14326;50.794;6.060;2022-12-10T10:09:26;99100.91;;;0.05;100.00
26719;BME280;14326;50.794;6.060;2022-12-10T10:11:53;99105.00;;;-0.02;100.00
26719;BME280;14326;50.794;6.060;2022-12-10T10:14:24;99103.03;;;-0.06;100.00
26719;BME280;14326;50.794;6.060;2022-12-10T10:16:55;99107.41;;;-0.06;100.00
26719;BME280;14326;50.794;6.060;2022-12-10T10:19:28;99101.28;;;-0.07;100.00
26719;BME280;14326;50.794;6.060;2022-12-10T10:21:56;99095.91;;;-0.10;100.00
26719;BME280;14326;50.794;6.060;2022-12-10T10:24:28;99099.34;;;-0.11;100.00
26719;BME280;14326;50.794;6.060;2022-12-10T10:27:04;99099.50;;;-0.08;100.00
26719;BME280;14326;50.794;6.060;2022-12-10T10:29:36;99106.78;;;-0.01;100.00
26719;BME280;14326;50.794;6.060;2022-12-10T10:32:19;99102.75;;;0.08;100.00
26719;BME280;14326;50.794;6.060;2022-12-10T10:34:52;99101.03;;;0.08;100.00
26719;BME280;14326;50.794;6.060;2022-12-10T10:37:21;99095.72;;;0.07;100.00
26719;BME280;14326;50.794;6.060;2022-12-10T10:39:49;99096.22;;;0.19;100.00
26719;BME280;14326;50.794;6.060;2022-12-10T10:42:27;99088.63;;;0.25;100.00
26719;BME280;14326;50.794;6.060;2022-12-10T10:44:54;99088.59;;;0.23;100.00
26719;BME280;14326;50.794;6.060;2022-12-10T10:47:28;99090.00;;;0.15;100.00
26719;BME280;14326;50.794;6.060;2022-12-10T10:49:55;99095.34;;;0.18;100.00
26719;BME280;14326;50.794;6.060;2022-12-10T10:52:22;99100.63;;;0.20;100.00
26719;BME280;14326;50.794;6.060;2022-12-10T10:54:49;99095.22;;;0.15;100.00
26719;BME280;14326;50.794;6.060;2022-12-10T10:57:20;99097.84;;;0.15;100.00
26719;BME280;14326;50.794;6.060;2022-12-10T10:59:49;99107.22;;;0.10;100.00
26719;BME280;14326;50.794;6.060;2022-12-10T11:02:20;99110.03;;;0.15;100.00
26719;BME280;14326;50.794;6.060;2022-12-10T11:04:51;99104.97;;;0.19;100.00
26719;BME280;14326;50.794;6.060;2022-12-10T11:07:24;99103.50;;;0.26;100.00
26719;BME280;14326;50.794;6.060;2022-12-10T11:09:53;99101.03;;;0.29;100.00
26719;BME280;14326;50.794;6.060;2022-12-10T11:12:27;99104.47;;;0.28;100.00
26719;BME280;14326;50.794;6.060;2022-12-10T11:14:54;99098.28;;;0.26;100.00
26719;BME280;14326;50.794;6.060;2022-12-10T11:17:23;99099.31;;;0.29;100.00
26719;BME280;14326;50.794;6.060;2022-12-10T11:19:58;99101.06;;;0.30;100.00
26719;BME280;14326;50.794;6.060;2022-12-10T11:22:27;99103.00;;;0.34;100.00
26719;BME280;14326;50.794;6.060;2022-12-10T11:24:55;99101.28;;;0.35;100.00
26719;BME280;14326;50.794;6.060;2022-12-10T11:27:44;99104.72;;;0.34;100.00
26719;BME280;14326;50.794;6.060;2022-12-10T11:30:18;99101.47;;;0.39;100.00
26719;BME280;14326;50.794;6.060;2022-12-10T11:33:10;99085.94;;;0.44;100.00
26719;BME280;14326;50.794;6.060;2022-12-10T11:35:51;99099.03;;;0.44;100.00
26719;BME280;14326;50.794;6.060;2022-12-10T11:38:26;99090.47;;;0.48;100.00
26719;BME280;14326;50.794;6.060;2022-12-10T11:41:02;99088.69;;;0.47;100.00
26719;BME280;14326;50.794;6.060;2022-12-10T11:43:44;99092.38;;;0.52;100.00
26719;BME280;14326;50.794;6.060;2022-12-10T11:46:26;99082.84;;;0.54;100.00
26719;BME280;14326;50.794;6.060;2022-12-10T11:49:03;99082.81;;;0.53;100.00
26719;BME280;14326;50.794;6.060;2022-12-10T11:51:35;99081.13;;;0.55;100.00
26719;BME280;14326;50.794;6.060;2022-12-10T11:54:29;99080.47;;;0.60;100.00
26719;BME280;14326;50.794;6.060;2022-12-10T11:57:05;99083.41;;;0.68;100.00
26719;BME280;14326;50.794;6.060;2022-12-10T11:59:41;99093.13;;;0.70;100.00
26719;BME280;14326;50.794;6.060;2022-12-10T12:02:30;99094.78;;;0.68;100.00
26719;BME280;14326;50.794;6.060;2022-12-10T12:05:25;99095.50;;;0.64;100.00
26719;BME280;14326;50.794;6.060;2022-12-10T12:08:04;99103.34;;;0.64;100.00
26719;BME280;14326;50.794;6.060;2022-12-10T12:10:56;99095.53;;;0.66;100.00
26719;BME280;14326;50.794;6.060;2022-12-10T12:13:29;99097.16;;;0.62;100.00
26719;BME280;14326;50.794;6.060;2022-12-10T12:16:04;99091.97;;;0.64;100.00
26719;BME280;14326;50.794;6.060;2022-12-10T12:18:41;99091.09;;;0.63;100.00
26719;BME280;14326;50.794;6.060;2022-12-10T12:21:10;99090.19;;;0.63;100.00
26719;BME280;14326;50.794;6.060;2022-12-10T12:23:45;99088.66;;;0.68;100.00
26719;BME280;14326;50.794;6.060;2022-12-10T12:26:15;99096.44;;;0.66;100.00
26719;BME280;14326;50.794;6.060;2022-12-10T12:28:46;99087.81;;;0.69;100.00
26719;BME280;14326;50.794;6.060;2022-12-10T12:31:18;99096.50;;;0.68;100.00
26719;BME280;14326;50.794;6.060;2022-12-10T12:33:50;99093.81;;;0.66;100.00
26719;BME280;14326;50.794;6.060;2022-12-10T12:36:20;99092.91;;;0.66;100.00
26719;BME280;14326;50.794;6.060;2022-12-10T12:38:52;99096.50;;;0.68;100.00
26719;BME280;14326;50.794;6.060;2022-12-10T12:41:31;99081.84;;;0.73;100.00
26719;BME280;14326;50.794;6.060;2022-12-10T12:44:04;99089.13;;;0.80;100.00
26719;BME280;14326;50.794;6.060;2022-12-10T12:46:37;99090.13;;;0.83;100.00
26719;BME280;14326;50.794;6.060;2022-12-10T12:49:11;99091.91;;;0.85;100.00
26719;BME280;14326;50.794;6.060;2022-12-10T12:51:45;99094.59;;;0.86;100.00
26719;BME280;14326;50.794;6.060;2022-12-10T12:54:14;99091.31;;;0.92;100.00
26719;BME280;14326;50.794;6.060;2022-12-10T12:56:55;99087.63;;;0.87;100.00
26719;BME280;14326;50.794;6.060;2022-12-10T12:59:35;99098.22;;;0.90;100.00
26719;BME280;14326;50.794;6.060;2022-12-10T13:02:16;99100.13;;;0.94;100.00
26719;BME280;14326;50.794;6.060;2022-12-10T13:04:45;99091.41;;;0.95;100.00
26719;BME280;14326;50.794;6.060;2022-12-10T13:07:30;99101.06;;;0.96;100.00